Nearby METAR Reports

 Weather conditions at key Metar weather stations is recorded hourly. Metar weather stations are the stations set up at regional or major airports and often considered the official stations of record for a local area.

KSEA - Seattle/Tacoma Airport
Updated: 12/10/2018 9:53pm
Overcast
Overcast
 Wind from SE
Wind: SE 12 mph , 19 km/h
Temperature: 45°F , 7°C
Wind Chill: 39°F , 4°C
Dew Point: 37°F , 3°C
Humidity: 76%
Barometer: 30.18 inHg , 1022 hPa
Clouds: Overcast
Visibility: 10 miles , 16 km
Cloud details: Few Clouds 5500 ft
Overcast 10000 ft
2018/12/11 05:53 KSEA 110553Z 14010KT 10SM FEW055 OVC100 07/03 A3018 RMK AO2 SLP229 T00720033 10083 20067 58012
KTIW - Tacoma Narrows Bridge
Updated: 12/10/2018 9:53pm
Overcast
Overcast
 Wind from S
Wind: S 6 mph , 9 km/h
Temperature: 43°F , 6°C
Wind Chill: 39°F , 4°C
Dew Point: 41°F , 5°C
Humidity: 93%
Barometer: 30.19 inHg , 1022.4 hPa
Clouds: Overcast
Visibility: 10 miles , 16 km
Cloud details: Few Clouds 600 ft
Overcast 11000 ft
2018/12/11 05:53 KTIW 110553Z AUTO 18005KT 10SM FEW006 OVC110 06/05 A3019 RMK AO2 SLP226 60000 T00610050 10078 20061 56006
 
KBLI - Bellingham
Updated: 12/10/2018 9:53pm
Overcast
Overcast
 Wind from SE
Wind: SE 15 mph , 24 km/h, Gust: 23 mph , 37 km/h
Temperature: 46°F , 8°C
Wind Chill: 40°F , 4°C
Dew Point: 37°F , 3°C
Humidity: 71%
Barometer: 30.12 inHg , 1020 hPa
Clouds: Overcast
Visibility: 10 miles , 16 km
Cloud details: Mostly cloudy 8000 ft
Mostly cloudy 10000 ft
Overcast 11000 ft
2018/12/11 05:53 KBLI 110553Z 13013G20KT 10SM BKN080 BKN100 OVC110 08/03 A3012 RMK AO2 SLP208 T00780028 10078 20050 58022
KUIL - Quillayute-La Push
Updated: 12/10/2018 9:53pm
Light rain, Mist, Overcast
Light rain, Mist, Overcast
 Wind from SSE
Wind: SSE 16 mph , 26 km/h, Gust: 26 mph , 43 km/h
Temperature: 46°F , 8°C
Wind Chill: 39°F , 4°C
Dew Point: 46°F , 8°C
Humidity: 100%
Barometer: 30.05 inHg , 1017.6 hPa
Summary: Light rain, Mist
Clouds: Overcast
Visibility: 5 miles , 8 km
Cloud details: Few Clouds 1400 ft
Few Clouds 2500 ft
Overcast 3500 ft
2018/12/11 05:53 KUIL 110553Z AUTO 15014G23KT 5SM -RA BR FEW014 FEW025 OVC035 08/08 A3005 RMK AO2 SLP178 P0006 60007 T00830083 10089 20078 56017 $
 
KYKM - Yakima
Updated: 12/10/2018 9:53pm
Mist, Overcast
Mist, Overcast
 Wind from N
Wind: N 3 mph , 6 km/h
Temperature: 30°F , -1°C
Dew Point: 28°F , -2°C
Humidity: 93%
Barometer: 30.28 inHg , 1025.4 hPa
Summary: Mist
Clouds: Overcast
Visibility: 4 miles , 6 km
Cloud details: Overcast 300 ft
2018/12/11 05:53 KYKM 110553Z 01003KT 4SM BR OVC003 M01/M02 A3028 RMK AO2 SLP268 T10111022 10000 21011 58001
KGEG - Spokane
Updated: 12/10/2018 9:53pm
Mist, Overcast
Mist, Overcast
 Wind from SW
Wind: SW 6 mph , 9 km/h
Temperature: 28°F , -2°C
Wind Chill: 21°F , -6°C
Dew Point: 27°F , -3°C
Humidity: 93%
Barometer: 30.24 inHg , 1024 hPa
Summary: Mist
Clouds: Overcast
Visibility: 1/2 mile , 2 km
Cloud details: Overcast 200 ft
2018/12/11 05:53 KGEG 110553Z 22005KT 1/2SM R21/P6000FT BR OVC002 M02/M03 A3024 RMK AO2 SFC VIS 3/4 SLP264 I6001 T10221033 11017 21028 51005
 
KPDX - Portland
Updated: 12/10/2018 9:53pm
Overcast
Overcast
 Wind from ESE
Wind: ESE 8 mph , 13 km/h
Temperature: 41°F , 5°C
Wind Chill: 36°F , 2°C
Dew Point: 39°F , 4°C
Humidity: 93%
Barometer: 30.27 inHg , 1025.1 hPa
Clouds: Overcast
Visibility: 10 miles , 16 km
Cloud details: Few Clouds 900 ft
Few Clouds 1900 ft
Mostly cloudy 10000 ft
Overcast 25000 ft
2018/12/11 05:53 KPDX 110553Z 11007KT 10SM FEW009 FEW019 BKN100 OVC250 05/04 A3027 RMK AO2 SLP249 T00500039 10061 20050 56008